Time;durP1;ratioP1;P1;durP2;ratioP2;P2;SDS_P1;SDS_P2;PMS_P1;PMS_P2;Temp;Humidity;BMP_temperature;BMP_pressure;BME280_temperature;BME280_humidity;BME280_pressure;Samples;Min_cycle;Max_cycle;Signal;HPM_P1;HPM_P2
2023/10/25 00:00:39;;;;;;;17.40;4.07;;;;;;;16.96;98.37;98675.28;6347995;27;20066;-74
2023/10/25 00:03:40;;;;;;;12.03;4.47;;;;;;;16.88;96.64;98668.25;6358374;27;20073;-73
2023/10/25 00:06:41;;;;;;;13.63;3.60;;;;;;;16.99;95.50;98659.16;6359256;27;20059;-74
2023/10/25 00:09:42;;;;;;;16.73;3.60;;;;;;;16.95;94.68;98659.69;6357471;27;20074;-73
2023/10/25 00:12:43;;;;;;;9.77;3.63;;;;;;;17.00;95.40;98652.88;6347469;28;20056;-73
2023/10/25 00:15:44;;;;;;;7.70;3.17;;;;;;;16.95;95.47;98646.50;6362376;27;20099;-74
2023/10/25 00:18:45;;;;;;;10.63;3.40;;;;;;;16.82;96.02;98647.84;6353965;27;20051;-74
2023/10/25 00:21:46;;;;;;;17.30;3.60;;;;;;;16.73;95.67;98683.84;6354755;27;20146;-73
2023/10/25 00:24:47;;;;;;;6.80;3.80;;;;;;;16.70;96.15;98668.41;6349547;28;20055;-74
2023/10/25 00:27:47;;;;;;;13.73;3.85;;;;;;;16.72;96.17;98686.69;6357704;27;20989;-73
2023/10/25 00:30:48;;;;;;;12.70;3.50;;;;;;;16.80;96.61;98684.03;6355424;28;20066;-73
2023/10/25 00:33:52;;;;;;;6.82;2.83;;;;;;;16.51;98.35;98685.38;6357409;27;20062;-73
2023/10/25 00:36:53;;;;;;;9.30;2.70;;;;;;;16.61;97.58;98676.47;6359656;27;20047;-73
2023/10/25 00:39:56;;;;;;;11.45;3.10;;;;;;;16.52;99.16;98673.84;6364183;27;20471;-73
2023/10/25 00:43:22;;;;;;;10.27;3.42;;;;;;;16.39;100.00;98670.91;6353727;28;20792;-73
2023/10/25 00:46:25;;;;;;;10.73;2.88;;;;;;;16.48;100.00;98674.34;6360652;27;20558;-73
2023/10/25 00:49:27;;;;;;;8.45;3.22;;;;;;;16.37;100.00;98672.03;6371178;28;20506;-73
2023/10/25 00:52:31;;;;;;;;;;;;;;;16.28;100.00;98664.13;6351965;28;20055;-73
2023/10/25 00:55:32;;;;;;;12.88;2.92;;;;;;;16.19;100.00;98646.69;6356733;28;19920;-73
2023/10/25 00:58:33;;;;;;;11.05;3.20;;;;;;;16.23;100.00;98650.66;6346706;28;20114;-73
2023/10/25 01:01:35;;;;;;;22.27;3.88;;;;;;;16.18;100.00;98642.41;6353567;27;20047;-74
2023/10/25 01:04:36;;;;;;;6.20;3.08;;;;;;;16.41;100.00;98642.59;6360553;28;20051;-74
2023/10/25 01:07:37;;;;;;;13.30;3.58;;;;;;;16.34;100.00;98643.41;6362654;27;20090;-73
2023/10/25 01:10:41;;;;;;;18.02;3.92;;;;;;;16.31;100.00;98645.38;6359206;27;20138;-72
2023/10/25 01:13:42;;;;;;;13.57;3.35;;;;;;;16.46;100.00;98634.19;6361466;27;20051;-73
2023/10/25 01:16:43;;;;;;;14.57;4.00;;;;;;;16.49;100.00;98634.69;6352678;28;20430;-73
2023/10/25 01:19:46;;;;;;;9.40;3.17;;;;;;;16.51;100.00;98632.72;6355172;28;20054;-73
2023/10/25 01:22:47;;;;;;;16.13;3.55;;;;;;;16.49;100.00;98602.25;6351923;28;20044;-73
2023/10/25 01:25:49;;;;;;;15.05;3.55;;;;;;;16.41;100.00;98597.00;6350009;28;20578;-73
2023/10/25 01:28:49;;;;;;;12.00;3.97;;;;;;;16.55;100.00;98587.63;6344881;28;20047;-73
2023/10/25 01:31:50;;;;;;;12.98;3.50;;;;;;;16.66;100.00;98587.28;6355437;28;20057;-73
2023/10/25 01:34:53;;;;;;;27.25;3.92;;;;;;;16.63;100.00;98577.88;6354389;27;20043;-73
2023/10/25 01:37:55;;;;;;;11.00;3.38;;;;;;;16.67;100.00;98570.47;6372605;27;20123;-73
2023/10/25 01:40:56;;;;;;;10.88;2.80;;;;;;;16.57;100.00;98562.75;6360161;27;20122;-72
2023/10/25 01:43:56;;;;;;;23.77;3.97;;;;;;;16.62;100.00;98576.25;6359886;27;20048;-72
2023/10/25 01:46:58;;;;;;;15.55;3.88;;;;;;;16.58;100.00;98579.41;6348021;27;20067;-72
2023/10/25 01:49:59;;;;;;;16.58;4.38;;;;;;;16.62;100.00;98584.16;6348162;27;20040;-73
2023/10/25 01:53:00;;;;;;;14.65;3.25;;;;;;;16.62;100.00;98583.34;6354106;27;20054;-73
2023/10/25 01:56:02;;;;;;;18.92;3.78;;;;;;;16.59;100.00;98583.66;6354111;27;20475;-73
2023/10/25 01:59:03;;;;;;;22.27;4.20;;;;;;;16.57;100.00;98573.28;6351893;27;20130;-73
2023/10/25 02:02:04;;;;;;;20.70;3.95;;;;;;;16.61;100.00;98565.88;6362155;27;20135;-74
2023/10/25 02:05:05;;;;;;;18.77;4.40;;;;;;;16.37;100.00;98564.94;6362369;27;20057;-73
2023/10/25 02:08:06;;;;;;;15.40;3.40;;;;;;;16.54;100.00;98563.09;6348162;27;20052;-73
2023/10/25 02:11:07;;;;;;;20.17;3.95;;;;;;;16.38;100.00;98539.44;6347993;27;20353;-74
2023/10/25 02:14:08;;;;;;;31.73;4.73;;;;;;;16.53;100.00;98537.75;6358565;27;20051;-74
2023/10/25 02:17:09;;;;;;;19.58;4.10;;;;;;;16.44;100.00;98526.44;6354392;27;20132;-74
2023/10/25 02:20:11;;;;;;;18.88;4.55;;;;;;;16.48;100.00;98535.63;6355664;27;20067;-73
2023/10/25 02:23:12;;;;;;;23.95;4.30;;;;;;;16.43;100.00;98532.69;6352722;27;20047;-73
2023/10/25 02:26:13;;;;;;;18.17;3.60;;;;;;;16.60;100.00;98520.31;6360709;27;20050;-73
2023/10/25 02:29:13;;;;;;;21.58;4.05;;;;;;;16.62;100.00;98520.13;6369352;27;20047;-73
2023/10/25 02:32:14;;;;;;;21.30;3.88;;;;;;;16.71;100.00;98527.81;6347102;27;20043;-74
2023/10/25 02:35:16;;;;;;;14.30;3.13;;;;;;;16.78;100.00;98522.72;6360595;27;20520;-74
2023/10/25 02:38:16;;;;;;;28.98;3.60;;;;;;;16.64;100.00;98529.50;6361657;27;20057;-73
2023/10/25 02:41:19;;;;;;;17.00;4.15;;;;;;;16.61;100.00;98519.28;6355584;27;20051;-73
2023/10/25 02:44:21;;;;;;;16.45;4.20;;;;;;;16.48;100.00;98526.91;6346724;27;20062;-73
2023/10/25 02:47:22;;;;;;;;;;;;;;;16.57;100.00;98535.59;6347296;27;20047;-74
2023/10/25 02:50:23;;;;;;;11.35;3.28;;;;;;;16.54;100.00;98522.78;6347551;27;19941;-74
2023/10/25 02:53:26;;;;;;;17.95;4.30;;;;;;;16.50;100.00;98528.38;6352156;27;20054;-73
2023/10/25 02:56:28;;;;;;;14.35;3.47;;;;;;;16.51;100.00;98514.25;6348619;27;20051;-73
2023/10/25 02:59:34;;;;;;;29.38;3.78;;;;;;;16.50;100.00;98499.41;6345910;27;20050;-73
2023/10/25 03:02:37;;;;;;;20.13;4.68;;;;;;;16.49;100.00;98508.31;6347363;27;20402;-73
2023/10/25 03:05:38;;;;;;;27.92;4.70;;;;;;;16.43;100.00;98495.84;6349524;27;20193;-73
2023/10/25 03:08:39;;;;;;;16.77;3.50;;;;;;;16.53;100.00;98487.72;6346199;27;20130;-74
2023/10/25 03:11:40;;;;;;;20.98;5.25;;;;;;;16.47;100.00;98478.72;6344479;27;20133;-73
2023/10/25 03:14:41;;;;;;;17.60;3.75;;;;;;;16.61;100.00;98471.91;6354937;27;20054;-74
2023/10/25 03:17:42;;;;;;;25.08;4.25;;;;;;;16.52;100.00;98455.31;6347159;27;20048;-73
2023/10/25 03:20:45;;;;;;;15.05;4.05;;;;;;;16.60;100.00;98456.28;6345139;27;20054;-73
2023/10/25 03:23:47;;;;;;;18.40;5.50;;;;;;;16.55;100.00;98453.34;6345611;27;20047;-73
2023/10/25 03:26:51;;;;;;;18.50;4.45;;;;;;;16.52;100.00;98457.94;6361341;27;20047;-73
2023/10/25 03:29:51;;;;;;;19.23;4.50;;;;;;;16.55;100.00;98427.81;6351432;27;20047;-73
2023/10/25 03:32:52;;;;;;;22.05;5.40;;;;;;;16.44;100.00;98442.19;6345591;27;20044;-73
2023/10/25 03:35:56;;;;;;;25.83;4.05;;;;;;;16.52;100.00;98444.78;6362436;27;20515;-72
2023/10/25 03:38:57;;;;;;;19.48;4.38;;;;;;;16.50;100.00;98438.88;6364610;27;20047;-72
2023/10/25 03:42:00;;;;;;;19.35;3.67;;;;;;;16.52;100.00;98430.81;6351035;27;20414;-73
2023/10/25 03:45:02;;;;;;;16.00;4.30;;;;;;;16.66;100.00;98432.72;6347842;27;20100;-73
2023/10/25 03:48:03;;;;;;;17.42;4.93;;;;;;;16.57;100.00;98417.94;6344091;27;20048;-73
2023/10/25 03:51:06;;;;;;;23.05;4.72;;;;;;;16.59;100.00;98417.78;6345696;28;20109;-72
2023/10/25 03:54:06;;;;;;;;;;;;;;;16.64;100.00;98423.38;6346746;27;20074;-72
2023/10/25 03:57:07;;;;;;;18.65;4.53;;;;;;;16.59;100.00;98425.69;6342548;27;19920;-72
2023/10/25 04:00:09;;;;;;;17.40;4.70;;;;;;;16.63;100.00;98425.16;6348825;27;20044;-73
2023/10/25 04:03:10;;;;;;;18.55;4.88;;;;;;;16.60;100.00;98416.78;6360738;27;20047;-73
2023/10/25 04:06:11;;;;;;;10.32;3.63;;;;;;;16.49;100.00;98408.28;6353359;27;20055;-73
2023/10/25 04:09:12;;;;;;;22.55;5.05;;;;;;;16.75;100.00;98417.69;6345306;28;20120;-73
2023/10/25 04:12:13;;;;;;;11.10;3.67;;;;;;;16.75;100.00;98409.78;6358764;27;20496;-73
2023/10/25 04:15:14;;;;;;;11.68;3.40;;;;;;;16.71;100.00;98411.13;6347167;28;20051;-73
2023/10/25 04:18:15;;;;;;;8.57;3.22;;;;;;;16.49;100.00;98412.72;6352911;27;20047;-73
2023/10/25 04:21:16;;;;;;;12.70;3.78;;;;;;;16.57;100.00;98402.16;6354081;28;20483;-73
2023/10/25 04:24:17;;;;;;;17.60;4.50;;;;;;;16.52;100.00;98397.41;6370993;28;20051;-73
2023/10/25 04:27:18;;;;;;;11.57;3.30;;;;;;;16.60;100.00;98408.91;6361039;27;20080;-73
2023/10/25 04:30:21;;;;;;;9.75;3.00;;;;;;;16.48;100.00;98408.44;6352135;28;20047;-73
2023/10/25 04:33:22;;;;;;;18.17;4.32;;;;;;;16.37;100.00;98398.28;6361919;28;20047;-73
2023/10/25 04:36:23;;;;;;;12.50;3.45;;;;;;;16.45;100.00;98399.09;6360685;27;20043;-73
2023/10/25 04:39:24;;;;;;;9.68;3.55;;;;;;;16.38;100.00;98403.38;6347606;28;20043;-73
2023/10/25 04:42:25;;;;;;;15.02;3.70;;;;;;;16.29;100.00;98404.44;6370545;27;20438;-73
2023/10/25 04:45:26;;;;;;;16.15;3.95;;;;;;;16.35;100.00;98401.13;6354477;27;20052;-74
2023/10/25 04:48:27;;;;;;;14.23;3.50;;;;;;;16.45;100.00;98404.34;6344825;28;20085;-74
2023/10/25 04:51:28;;;;;;;9.50;3.33;;;;;;;16.36;100.00;98401.91;6350646;28;20048;-73
2023/10/25 04:54:29;;;;;;;9.57;3.25;;;;;;;16.34;100.00;98399.44;6344775;28;20102;-73
2023/10/25 04:57:33;;;;;;;7.88;2.95;;;;;;;16.41;100.00;98397.78;6351985;27;20069;-73
2023/10/25 05:00:34;;;;;;;14.32;3.45;;;;;;;16.24;100.00;98398.84;6343752;28;20044;-73
2023/10/25 05:03:35;;;;;;;13.95;3.25;;;;;;;16.42;100.00;98391.53;6344849;28;20161;-74
2023/10/25 05:06:36;;;;;;;8.15;3.00;;;;;;;16.31;100.00;98384.03;6345637;28;20079;-73
2023/10/25 05:09:37;;;;;;;10.77;2.27;;;;;;;16.41;100.00;98405.69;6348479;28;20448;-73
2023/10/25 05:12:41;;;;;;;19.70;2.72;;;;;;;16.43;100.00;98400.22;6350734;28;20080;-73
2023/10/25 05:15:42;;;;;;;10.68;2.58;;;;;;;16.47;100.00;98418.16;6349152;28;20495;-73
2023/10/25 05:18:44;;;;;;;20.58;3.58;;;;;;;16.37;100.00;98408.81;6350604;27;20047;-73
2023/10/25 05:21:50;;;;;;;9.80;2.53;;;;;;;16.42;100.00;98409.13;6349164;28;20043;-73
2023/10/25 05:24:52;;;;;;;12.80;2.75;;;;;;;16.19;100.00;98403.81;6349311;28;20051;-73
2023/10/25 05:27:53;;;;;;;10.60;3.33;;;;;;;16.31;100.00;98408.53;6348956;28;20051;-73
2023/10/25 05:31:01;;;;;;;5.27;2.17;;;;;;;16.31;100.00;98402.44;6348877;28;20047;-73
2023/10/25 05:34:02;;;;;;;12.15;3.00;;;;;;;16.31;100.00;98408.53;6348804;28;20083;-73
2023/10/25 05:37:04;;;;;;;12.15;3.30;;;;;;;16.33;100.00;98408.34;6348630;28;20047;-73
2023/10/25 05:40:06;;;;;;;6.90;2.42;;;;;;;16.42;100.00;98409.13;6348916;28;20047;-73
2023/10/25 05:43:11;;;;;;;7.35;2.63;;;;;;;16.38;100.00;98416.53;6349987;28;20052;-73
2023/10/25 05:46:12;;;;;;;8.52;2.70;;;;;;;16.50;100.00;98414.38;6369593;27;20127;-73
2023/10/25 05:49:13;;;;;;;5.82;1.73;;;;;;;16.46;100.00;98420.97;6375219;27;20491;-73
2023/10/25 05:52:14;;;;;;;11.73;3.30;;;;;;;16.62;100.00;98418.25;6374453;27;20558;-73
2023/10/25 05:55:16;;;;;;;13.20;2.17;;;;;;;16.50;100.00;98414.38;6373992;27;20388;-73
2023/10/25 05:58:19;;;;;;;7.55;2.30;;;;;;;16.64;100.00;98421.53;6375009;27;20271;-73
2023/10/25 06:01:34;;;;;;;15.43;2.65;;;;;;;16.71;100.00;98414.56;6375068;27;20065;-73
2023/10/25 06:04:37;;;;;;;13.77;2.50;;;;;;;16.62;100.00;98415.63;6374021;27;20047;-73
2023/10/25 06:07:39;;;;;;;9.45;2.03;;;;;;;16.67;100.00;98417.75;6373477;27;20051;-73
2023/10/25 06:10:43;;;;;;;8.02;2.28;;;;;;;16.79;100.00;98405.81;6374844;27;20051;-73
2023/10/25 06:13:44;;;;;;;6.95;1.90;;;;;;;16.70;100.00;98415.59;6373476;27;20083;-73
2023/10/25 06:16:45;;;;;;;9.87;1.80;;;;;;;16.88;100.00;98414.53;6374821;27;20047;-73
2023/10/25 06:19:46;;;;;;;6.63;1.67;;;;;;;16.82;100.00;98412.56;6372381;27;20054;-73
2023/10/25 06:22:47;;;;;;;6.30;1.90;;;;;;;16.88;100.00;98412.72;6374699;27;20498;-73
2023/10/25 06:25:48;;;;;;;9.02;2.08;;;;;;;17.07;100.00;98422.00;6373302;27;20051;-73
2023/10/25 06:28:51;;;;;;;6.63;2.17;;;;;;;17.08;100.00;98418.34;6374133;27;20051;-73
2023/10/25 06:31:52;;;;;;;11.45;2.28;;;;;;;17.12;100.00;98411.72;6373153;27;20420;-74
2023/10/25 06:34:53;;;;;;;4.23;1.40;;;;;;;17.06;100.00;98411.63;6373074;27;20112;-73
2023/10/25 06:37:54;;;;;;;7.40;1.85;;;;;;;17.13;100.00;98409.91;6372869;27;20051;-73
2023/10/25 06:40:56;;;;;;;7.53;1.98;;;;;;;17.29;100.00;98415.06;6372849;27;20407;-73
2023/10/25 06:43:57;;;;;;;5.00;1.80;;;;;;;17.27;100.00;98414.41;6374224;27;20055;-73
2023/10/25 06:46:58;;;;;;;7.13;1.55;;;;;;;17.26;100.00;98410.16;6372660;27;20487;-73
2023/10/25 06:50:00;;;;;;;7.80;1.63;;;;;;;17.57;100.00;98408.44;6373943;27;20494;-73
2023/10/25 06:53:01;;;;;;;7.97;2.38;;;;;;;17.21;100.00;98404.56;6373876;27;20402;-73
2023/10/25 06:56:03;;;;;;;7.57;1.87;;;;;;;17.41;100.00;98406.75;6372787;27;20043;-72
2023/10/25 06:59:06;;;;;;;3.58;1.13;;;;;;;17.46;100.00;98407.03;6372382;27;20272;-73
2023/10/25 07:02:53;;;;;;;6.85;1.58;;;;;;;17.52;100.00;98412.41;6373496;27;20050;-73
2023/10/25 07:05:56;;;;;;;6.07;1.40;;;;;;;17.48;100.00;98400.59;6347430;27;20126;-72
2023/10/25 07:08:57;;;;;;;4.88;1.27;;;;;;;17.46;100.00;98392.03;6373161;27;20406;-72
2023/10/25 07:12:00;;;;;;;4.10;1.58;;;;;;;17.59;100.00;98393.25;6373204;27;20484;-73
2023/10/25 07:15:01;;;;;;;7.35;1.73;;;;;;;17.49;100.00;98388.22;6372235;27;20051;-73
2023/10/25 07:18:02;;;;;;;4.10;1.43;;;;;;;17.72;100.00;98378.44;6373282;27;20095;-73
2023/10/25 07:21:03;;;;;;;3.30;1.20;;;;;;;17.67;100.00;98380.00;6373436;27;20070;-72
2023/10/25 07:24:08;;;;;;;5.18;1.55;;;;;;;17.75;100.00;98386.97;6372053;27;20079;-72
2023/10/25 07:27:11;;;;;;;10.13;1.70;;;;;;;17.51;100.00;98378.31;6371627;27;20072;-73
2023/10/25 07:30:12;;;;;;;10.45;1.30;;;;;;;17.37;100.00;98373.81;6372711;27;20497;-72
2023/10/25 07:33:14;;;;;;;7.07;1.40;;;;;;;17.44;100.00;98378.22;6371607;27;20072;-73
2023/10/25 07:36:15;;;;;;;6.70;1.30;;;;;;;17.31;100.00;98370.06;6371548;27;20514;-73
2023/10/25 07:39:16;;;;;;;1.73;0.68;;;;;;;17.20;100.00;98381.88;6372489;27;20046;-73
2023/10/25 07:42:19;;;;;;;2.35;0.65;;;;;;;17.26;100.00;98372.44;6372873;27;20422;-73
2023/10/25 07:45:20;;;;;;;8.50;0.70;;;;;;;17.13;100.00;98378.28;6372476;27;20508;-74
2023/10/25 07:48:23;;;;;;;8.18;0.70;;;;;;;17.24;100.00;98372.59;6371360;27;20046;-72
2023/10/25 07:51:24;;;;;;;2.50;0.90;;;;;;;17.24;100.00;98364.69;6371059;27;20130;-72
2023/10/25 07:54:25;;;;;;;3.67;0.82;;;;;;;17.20;100.00;98359.97;6371383;27;20047;-73
2023/10/25 07:57:26;;;;;;;4.25;0.80;;;;;;;16.98;100.00;98362.44;6371073;27;20109;-73
2023/10/25 08:00:27;;;;;;;2.22;0.82;;;;;;;16.89;100.00;98372.22;6372021;27;20499;-73
2023/10/25 08:03:29;;;;;;;1.55;1.27;;;;;;;16.55;100.00;98380.44;6371119;27;20076;-73
2023/10/25 08:06:29;;;;;;;1.80;1.10;;;;;;;16.43;100.00;98376.53;6370692;27;20497;-72
2023/10/25 08:09:30;;;;;;;2.17;1.33;;;;;;;16.49;100.00;98370.59;6370627;27;20047;-72
2023/10/25 08:12:36;;;;;;;3.00;1.40;;;;;;;16.42;100.00;98382.81;6372023;27;20047;-72
2023/10/25 08:15:37;;;;;;;3.60;1.77;;;;;;;16.18;100.00;98381.09;6372095;27;20051;-73
2023/10/25 08:18:37;;;;;;;3.03;1.73;;;;;;;16.32;100.00;98385.66;6371694;27;20091;-73
2023/10/25 08:21:38;;;;;;;9.18;2.13;;;;;;;16.19;100.00;98394.09;6370747;27;20047;-72
2023/10/25 08:24:39;;;;;;;3.80;1.98;;;;;;;16.33;100.00;98395.19;6370546;28;20088;-72
2023/10/25 08:27:40;;;;;;;4.20;2.08;;;;;;;16.32;100.00;98401.44;6371877;27;20062;-72
2023/10/25 08:30:41;;;;;;;4.15;2.50;;;;;;;16.39;100.00;98405.03;6371732;27;20051;-72
2023/10/25 08:33:41;;;;;;;6.35;2.38;;;;;;;16.50;100.00;98409.91;6370406;27;20054;-73
2023/10/25 08:36:42;;;;;;;7.78;2.65;;;;;;;16.36;100.00;98420.34;6370541;27;20131;-72
2023/10/25 08:39:43;;;;;;;6.85;2.65;;;;;;;16.34;100.00;98415.25;6370268;28;20108;-72
2023/10/25 08:42:44;;;;;;;2.95;2.38;;;;;;;16.07;100.00;98427.81;6371653;27;20503;-72
2023/10/25 08:45:45;;;;;;;4.47;2.30;;;;;;;16.13;100.00;98447.38;6376765;27;20073;-73
2023/10/25 08:48:47;;;;;;;3.40;2.47;;;;;;;16.00;100.00;98452.34;6375474;27;20517;-72
2023/10/25 08:51:49;;;;;;;7.68;2.25;;;;;;;15.97;100.00;98455.31;6375241;27;20553;-71
2023/10/25 08:54:50;;;;;;;2.33;1.90;;;;;;;15.81;100.00;98467.47;6376853;27;20055;-73
2023/10/25 08:57:56;;;;;;;2.10;1.83;;;;;;;15.91;100.00;98478.66;6375389;27;20081;-72
2023/10/25 09:00:57;;;;;;;2.20;1.73;;;;;;;15.95;100.00;98484.41;6375021;27;20054;-72
2023/10/25 09:04:06;;;;;;;2.90;2.03;;;;;;;16.04;100.00;98493.94;6375434;27;20047;-72
2023/10/25 09:07:29;;;;;;;4.68;2.00;;;;;;;15.88;100.00;98488.69;6376218;27;20055;-72
2023/10/25 09:10:30;;;;;;;4.55;2.35;;;;;;;15.88;100.00;98486.06;6374834;27;20098;-73
2023/10/25 09:13:36;;;;;;;3.97;2.88;;;;;;;16.02;100.00;98503.81;6376189;27;20067;-73
2023/10/25 09:16:42;;;;;;;4.60;2.38;;;;;;;16.17;100.00;98505.78;6376149;27;20512;-72
2023/10/25 09:19:45;;;;;;;4.20;2.67;;;;;;;16.48;100.00;98508.50;6374747;27;20092;-73
2023/10/25 09:22:45;;;;;;;;;;;;;;;16.55;100.00;98506.81;6375373;27;20070;-73
2023/10/25 09:25:51;;;;;;;5.85;2.88;;;;;;;16.84;100.00;98495.72;6374877;27;20398;-72
2023/10/25 09:28:57;;;;;;;3.55;2.67;;;;;;;17.05;100.00;98500.38;6374707;27;20406;-72
2023/10/25 09:32:08;;;;;;;3.45;2.35;;;;;;;17.05;100.00;98505.66;6374316;27;20047;-73
2023/10/25 09:35:10;;;;;;;3.63;2.83;;;;;;;17.27;100.00;98524.31;6375788;27;20074;-72
2023/10/25 09:38:11;;;;;;;5.60;3.35;;;;;;;17.35;100.00;98531.34;6374270;27;20047;-73
2023/10/25 09:41:22;;;;;;;2.97;2.50;;;;;;;17.36;100.00;98538.25;6374435;27;20498;-73
2023/10/25 09:44:28;;;;;;;5.50;2.80;;;;;;;17.17;100.00;98566.69;6374152;27;20543;-72
2023/10/25 09:47:36;;;;;;;4.90;2.60;;;;;;;17.41;100.00;98563.09;6375379;27;20410;-72
2023/10/25 09:50:48;;;;;;;4.53;2.55;;;;;;;17.25;100.00;98566.63;6373740;27;20047;-72
2023/10/25 09:54:05;;;;;;;4.30;2.72;;;;;;;17.20;100.00;98573.44;6374240;27;20047;-72
2023/10/25 09:57:11;;;;;;;4.13;2.92;;;;;;;17.43;100.00;98569.03;6374908;27;20519;-72
2023/10/25 10:00:14;;;;;;;5.15;3.22;;;;;;;17.57;100.00;98567.47;6373559;27;20175;-72
2023/10/25 10:03:44;;;;;;;4.43;3.42;;;;;;;17.42;100.00;98579.75;6374742;27;20050;-72
2023/10/25 10:07:06;;;;;;;12.25;4.18;;;;;;;17.82;99.50;98572.56;6373228;27;20583;-72
2023/10/25 10:10:31;;;;;;;5.72;3.92;;;;;;;17.73;97.66;98588.47;6374757;27;20039;-72
2023/10/25 10:13:32;;;;;;;4.03;3.08;;;;;;;17.69;97.85;98599.53;6374627;27;20058;-72
2023/10/25 10:16:33;;;;;;;4.70;3.30;;;;;;;17.79;96.01;98602.78;6373390;27;20051;-72
2023/10/25 10:19:40;;;;;;;3.92;3.03;;;;;;;17.63;96.19;98614.25;6374601;27;20551;-72
2023/10/25 10:23:04;;;;;;;5.07;3.22;;;;;;;17.39;95.40;98606.47;6374670;27;20554;-72
2023/10/25 10:26:07;;;;;;;4.15;2.97;;;;;;;17.30;94.96;98609.13;6373205;27;20050;-72
2023/10/25 10:29:36;;;;;;;4.85;3.42;;;;;;;17.28;95.03;98624.31;6373386;27;20142;-72
2023/10/25 10:32:40;;;;;;;4.25;2.70;;;;;;;17.35;93.95;98608.63;6373309;27;20047;-72
2023/10/25 10:35:46;;;;;;;5.03;2.92;;;;;;;17.33;94.46;98618.50;6373042;27;20467;-72
2023/10/25 10:39:16;;;;;;;3.15;2.80;;;;;;;17.27;94.78;98630.56;6373071;27;20070;-72
2023/10/25 10:42:20;;;;;;;4.22;3.00;;;;;;;17.26;94.23;98613.09;6372788;27;20083;-72
2023/10/25 10:45:21;;;;;;;4.45;3.28;;;;;;;17.28;93.41;98631.41;6372963;27;20414;-72
2023/10/25 10:48:32;;;;;;;4.53;3.10;;;;;;;17.26;94.02;98631.56;6372747;27;20055;-73
2023/10/25 10:51:33;;;;;;;4.50;3.10;;;;;;;17.46;92.38;98636.41;6372772;27;20050;-72
2023/10/25 10:54:34;;;;;;;4.53;2.53;;;;;;;17.81;91.48;98631.59;6372509;27;20047;-73
2023/10/25 10:57:36;;;;;;;4.65;3.17;;;;;;;17.51;89.01;98655.19;6372489;27;20415;-72
2023/10/25 11:00:44;;;;;;;4.75;3.20;;;;;;;17.38;89.80;98652.25;6372339;27;20103;-72
2023/10/25 11:03:47;;;;;;;6.55;3.65;;;;;;;17.44;90.46;98655.06;6372253;27;20047;-72
2023/10/25 11:06:48;;;;;;;4.18;2.80;;;;;;;17.58;89.53;98658.75;6373398;27;20051;-72
2023/10/25 11:09:49;;;;;;;6.28;3.13;;;;;;;17.31;89.01;98666.13;6372070;27;20102;-72
2023/10/25 11:12:50;;;;;;;4.15;2.80;;;;;;;17.31;90.60;98679.31;6372283;27;20103;-73
2023/10/25 11:16:12;;;;;;;5.88;3.10;;;;;;;17.35;89.82;98666.63;6372101;27;20047;-73
2023/10/25 11:19:13;;;;;;;7.53;3.25;;;;;;;17.15;90.17;98676.72;6372370;27;20047;-72
2023/10/25 11:22:14;;;;;;;4.90;2.75;;;;;;;17.12;88.94;98669.97;6373060;27;20047;-73
2023/10/25 11:25:22;;;;;;;3.30;2.75;;;;;;;17.08;89.63;98671.31;6373020;27;20529;-72
2023/10/25 11:28:23;;;;;;;4.15;2.92;;;;;;;17.08;89.81;98675.75;6371814;27;20482;-73
2023/10/25 11:31:26;;;;;;;5.47;2.80;;;;;;;16.97;90.43;98684.84;6371561;27;20510;-72
2023/10/25 11:34:32;;;;;;;4.22;2.70;;;;;;;17.15;90.25;98691.72;6372912;27;20047;-72
2023/10/25 11:37:42;;;;;;;3.58;2.40;;;;;;;17.03;90.03;98689.47;6373018;27;20092;-72
2023/10/25 11:40:46;;;;;;;4.43;2.55;;;;;;;17.01;89.54;98691.44;6370027;27;20035;-72
2023/10/25 11:43:50;;;;;;;3.17;2.10;;;;;;;16.99;87.85;98701.31;6372498;27;20051;-73
2023/10/25 11:46:58;;;;;;;6.50;2.88;;;;;;;17.13;88.46;98705.06;6349641;27;20104;-73
2023/10/25 11:50:00;;;;;;;3.88;2.65;;;;;;;17.15;88.32;98700.44;6358778;27;20053;-72
2023/10/25 11:53:02;;;;;;;2.65;2.05;;;;;;;17.35;88.60;98706.16;6370927;27;20043;-72
2023/10/25 11:56:03;;;;;;;3.63;2.43;;;;;;;17.16;87.01;98696.00;6371205;27;20058;-72
2023/10/25 11:59:06;;;;;;;3.60;2.40;;;;;;;17.27;86.89;98696.44;6372234;27;20404;-73
2023/10/25 12:02:10;;;;;;;3.95;2.65;;;;;;;17.48;85.63;98692.44;6370719;27;20047;-72
2023/10/25 12:05:12;;;;;;;2.20;1.98;;;;;;;17.45;84.93;98698.06;6370968;27;20083;-73
2023/10/25 12:08:13;;;;;;;2.80;2.10;;;;;;;17.61;84.86;98691.91;6370647;27;20059;-72
2023/10/25 12:11:14;;;;;;;2.47;2.10;;;;;;;17.50;84.53;98699.19;6370501;27;20380;-73
2023/10/25 12:14:15;;;;;;;3.15;1.92;;;;;;;17.48;85.61;98702.97;6370656;27;20046;-72
2023/10/25 12:17:19;;;;;;;2.28;1.67;;;;;;;17.40;84.34;98711.75;6370150;27;20050;-72
2023/10/25 12:20:19;;;;;;;2.60;1.92;;;;;;;17.47;84.28;98715.34;6371800;27;20203;-73
2023/10/25 12:23:20;;;;;;;3.80;2.20;;;;;;;17.55;84.37;98711.88;6371945;27;20050;-72
2023/10/25 12:26:24;;;;;;;6.25;2.70;;;;;;;17.33;84.64;98706.31;6371749;27;20047;-72
2023/10/25 12:29:25;;;;;;;3.42;2.33;;;;;;;17.44;83.82;98715.69;6370329;28;20534;-72
2023/10/25 12:32:25;;;;;;;3.70;2.00;;;;;;;17.39;83.94;98707.47;6370302;27;20160;-72
2023/10/25 12:35:26;;;;;;;7.20;2.05;;;;;;;17.39;84.59;98715.38;6370314;27;20495;-72
2023/10/25 12:38:28;;;;;;;2.58;2.05;;;;;;;17.53;84.16;98713.84;6371881;27;20423;-72
2023/10/25 12:41:29;;;;;;;3.28;2.10;;;;;;;17.45;84.72;98711.25;6371370;27;20054;-72
2023/10/25 12:44:30;;;;;;;4.07;2.20;;;;;;;17.44;85.20;98709.59;6370451;27;20051;-73
2023/10/25 12:47:31;;;;;;;4.72;3.13;;;;;;;17.46;84.16;98712.88;6371276;27;20200;-72
2023/10/25 12:50:34;;;;;;;3.53;2.50;;;;;;;17.59;84.45;98710.53;6370256;28;20410;-72
2023/10/25 12:53:35;;;;;;;6.35;2.25;;;;;;;17.60;83.42;98709.50;6370126;28;20058;-72
2023/10/25 12:56:37;;;;;;;6.40;3.13;;;;;;;17.50;82.23;98714.16;6371528;28;20075;-73
2023/10/25 12:59:40;;;;;;;4.13;2.72;;;;;;;17.68;82.58;98711.31;6370111;27;20050;-72
2023/10/25 13:02:41;;;;;;;2.47;2.00;;;;;;;18.30;80.33;98713.13;6370120;28;20143;-72
2023/10/25 13:05:42;;;;;;;2.22;2.00;;;;;;;18.91;78.20;98705.22;6370160;27;20047;-73
2023/10/25 13:08:43;;;;;;;4.88;2.40;;;;;;;18.89;76.30;98700.13;6344273;28;20051;-73
2023/10/25 13:11:44;;;;;;;2.55;1.90;;;;;;;18.45;77.70;98702.59;6344310;28;20047;-73
2023/10/25 13:14:45;;;;;;;6.35;3.10;;;;;;;18.66;77.38;98704.59;6344455;28;20411;-72
2023/10/25 13:17:46;;;;;;;19.98;9.50;;;;;;;18.69;78.03;98704.22;6344349;28;20052;-73
2023/10/25 13:20:46;;;;;;;3.85;2.60;;;;;;;18.51;77.77;98715.09;6344393;28;20113;-72
2023/10/25 13:23:50;;;;;;;4.32;2.28;;;;;;;18.60;77.04;98710.59;6345771;28;20090;-72
2023/10/25 13:26:51;;;;;;;4.00;1.80;;;;;;;18.39;78.06;98705.97;6345497;28;20051;-73
2023/10/25 13:29:55;;;;;;;2.38;1.95;;;;;;;18.40;78.52;98708.44;6347194;28;20054;-72
2023/10/25 13:32:57;;;;;;;3.65;2.38;;;;;;;18.29;79.93;98709.66;6350094;28;20051;-72
2023/10/25 13:35:58;;;;;;;4.60;1.97;;;;;;;17.90;80.21;98710.56;6348882;28;20047;-73
2023/10/25 13:38:59;;;;;;;4.72;2.05;;;;;;;17.91;81.26;98711.38;6350059;28;20284;-73
2023/10/25 13:42:04;;;;;;;2.33;1.90;;;;;;;17.83;81.02;98716.69;6349832;28;20491;-73
2023/10/25 13:45:06;;;;;;;4.72;2.50;;;;;;;18.01;80.98;98714.63;6349955;28;20059;-72
2023/10/25 13:48:08;;;;;;;5.03;2.10;;;;;;;18.12;80.32;98714.25;6349766;28;20724;-72
2023/10/25 13:51:11;;;;;;;3.83;2.00;;;;;;;18.05;80.84;98710.63;6349756;28;20055;-72
2023/10/25 13:54:14;;;;;;;4.43;2.95;;;;;;;18.30;80.30;98710.47;6348303;28;20052;-72
2023/10/25 13:57:16;;;;;;;2.30;2.10;;;;;;;18.38;79.23;98707.78;6349695;28;20066;-72
2023/10/25 14:00:17;;;;;;;1.80;1.50;;;;;;;18.39;79.20;98711.25;6349484;28;20065;-73
2023/10/25 14:03:20;;;;;;;2.35;1.40;;;;;;;18.35;77.94;98717.91;6348316;28;20280;-73
2023/10/25 14:06:21;;;;;;;2.78;1.90;;;;;;;18.51;78.72;98721.22;6354532;27;20077;-72
2023/10/25 14:09:22;;;;;;;2.30;1.80;;;;;;;18.25;78.22;98716.28;6374597;27;20096;-73
2023/10/25 14:12:23;;;;;;;6.70;1.70;;;;;;;18.28;78.66;98726.53;6374749;27;20495;-72